sensor_id;sensor_type;location;lat;lon;timestamp;P1;durP1;ratioP1;P2;durP2;ratioP2
60935;SDS011;46804;51.786;19.520;2023-02-15T00:01:43;36.65;;;17.58;;
60935;SDS011;46804;51.786;19.520;2023-02-15T00:05:44;28.90;;;15.70;;
60935;SDS011;46804;51.786;19.520;2023-02-15T00:09:45;34.25;;;17.85;;
60935;SDS011;46804;51.786;19.520;2023-02-15T00:13:46;40.40;;;18.80;;
60935;SDS011;46804;51.786;19.520;2023-02-15T00:17:47;35.30;;;19.08;;
60935;SDS011;46804;51.786;19.520;2023-02-15T00:21:48;30.48;;;17.75;;
60935;SDS011;46804;51.786;19.520;2023-02-15T00:25:49;29.95;;;17.75;;
60935;SDS011;46804;51.786;19.520;2023-02-15T00:29:50;30.90;;;16.20;;
60935;SDS011;46804;51.786;19.520;2023-02-15T00:33:51;31.05;;;16.40;;
60935;SDS011;46804;51.786;19.520;2023-02-15T00:37:51;36.45;;;17.60;;
60935;SDS011;46804;51.786;19.520;2023-02-15T00:41:52;36.20;;;17.48;;
60935;SDS011;46804;51.786;19.520;2023-02-15T00:45:53;37.08;;;18.25;;
60935;SDS011;46804;51.786;19.520;2023-02-15T00:49:54;37.22;;;18.40;;
60935;SDS011;46804;51.786;19.520;2023-02-15T00:53:54;34.92;;;17.13;;
60935;SDS011;46804;51.786;19.520;2023-02-15T00:57:55;30.35;;;16.50;;
60935;SDS011;46804;51.786;19.520;2023-02-15T01:01:56;32.17;;;16.35;;
60935;SDS011;46804;51.786;19.520;2023-02-15T01:05:57;30.88;;;15.48;;
60935;SDS011;46804;51.786;19.520;2023-02-15T01:09:57;28.05;;;15.18;;
60935;SDS011;46804;51.786;19.520;2023-02-15T01:13:58;28.88;;;16.70;;
60935;SDS011;46804;51.786;19.520;2023-02-15T01:17:59;32.60;;;17.02;;
60935;SDS011;46804;51.786;19.520;2023-02-15T01:21:59;28.73;;;16.00;;
60935;SDS011;46804;51.786;19.520;2023-02-15T01:26:03;26.75;;;15.93;;
60935;SDS011;46804;51.786;19.520;2023-02-15T01:34:05;26.90;;;14.60;;
60935;SDS011;46804;51.786;19.520;2023-02-15T01:38:05;31.58;;;15.93;;
60935;SDS011;46804;51.786;19.520;2023-02-15T01:42:09;32.22;;;16.77;;
60935;SDS011;46804;51.786;19.520;2023-02-15T01:46:11;33.05;;;15.57;;
60935;SDS011;46804;51.786;19.520;2023-02-15T01:50:21;36.28;;;15.80;;
60935;SDS011;46804;51.786;19.520;2023-02-15T01:54:29;25.52;;;15.07;;
60935;SDS011;46804;51.786;19.520;2023-02-15T01:58:32;34.15;;;16.23;;
60935;SDS011;46804;51.786;19.520;2023-02-15T02:02:35;28.77;;;15.30;;
60935;SDS011;46804;51.786;19.520;2023-02-15T02:06:36;26.25;;;14.35;;
60935;SDS011;46804;51.786;19.520;2023-02-15T02:10:38;31.02;;;16.60;;
60935;SDS011;46804;51.786;19.520;2023-02-15T02:14:39;24.23;;;14.48;;
60935;SDS011;46804;51.786;19.520;2023-02-15T02:18:44;29.65;;;16.05;;
60935;SDS011;46804;51.786;19.520;2023-02-15T02:23:02;25.60;;;14.48;;
60935;SDS011;46804;51.786;19.520;2023-02-15T02:36:23;29.70;;;15.40;;
60935;SDS011;46804;51.786;19.520;2023-02-15T02:40:44;32.03;;;15.68;;
60935;SDS011;46804;51.786;19.520;2023-02-15T02:44:55;25.58;;;14.52;;
60935;SDS011;46804;51.786;19.520;2023-02-15T02:49:01;27.90;;;14.63;;
60935;SDS011;46804;51.786;19.520;2023-02-15T02:53:02;27.92;;;14.02;;
60935;SDS011;46804;51.786;19.520;2023-02-15T02:57:04;24.90;;;13.13;;
60935;SDS011;46804;51.786;19.520;2023-02-15T03:01:13;24.30;;;14.02;;
60935;SDS011;46804;51.786;19.520;2023-02-15T03:09:31;21.88;;;11.45;;
60935;SDS011;46804;51.786;19.520;2023-02-15T03:13:44;22.83;;;12.55;;
60935;SDS011;46804;51.786;19.520;2023-02-15T03:17:51;20.27;;;12.93;;
60935;SDS011;46804;51.786;19.520;2023-02-15T03:21:57;20.25;;;12.65;;
60935;SDS011;46804;51.786;19.520;2023-02-15T03:26:09;23.70;;;12.40;;
60935;SDS011;46804;51.786;19.520;2023-02-15T03:30:11;29.15;;;12.85;;
60935;SDS011;46804;51.786;19.520;2023-02-15T03:34:13;26.20;;;12.15;;
60935;SDS011;46804;51.786;19.520;2023-02-15T03:38:17;27.17;;;12.30;;
60935;SDS011;46804;51.786;19.520;2023-02-15T03:42:26;21.35;;;12.40;;
60935;SDS011;46804;51.786;19.520;2023-02-15T03:50:56;29.23;;;13.18;;
60935;SDS011;46804;51.786;19.520;2023-02-15T03:55:20;22.10;;;13.07;;
60935;SDS011;46804;51.786;19.520;2023-02-15T03:59:21;25.45;;;12.90;;
60935;SDS011;46804;51.786;19.520;2023-02-15T04:36:07;24.63;;;13.43;;
60935;SDS011;46804;51.786;19.520;2023-02-15T04:40:09;30.42;;;14.63;;
60935;SDS011;46804;51.786;19.520;2023-02-15T04:44:11;20.67;;;12.57;;
60935;SDS011;46804;51.786;19.520;2023-02-15T04:48:12;26.63;;;14.45;;
60935;SDS011;46804;51.786;19.520;2023-02-15T04:52:13;26.92;;;14.10;;
60935;SDS011;46804;51.786;19.520;2023-02-15T04:56:13;22.90;;;13.57;;
60935;SDS011;46804;51.786;19.520;2023-02-15T05:00:14;23.80;;;12.73;;
60935;SDS011;46804;51.786;19.520;2023-02-15T05:04:15;21.65;;;12.63;;
60935;SDS011;46804;51.786;19.520;2023-02-15T05:08:16;23.08;;;12.95;;
60935;SDS011;46804;51.786;19.520;2023-02-15T05:16:26;24.75;;;13.43;;
60935;SDS011;46804;51.786;19.520;2023-02-15T05:20:28;25.88;;;13.70;;
60935;SDS011;46804;51.786;19.520;2023-02-15T05:24:28;24.03;;;14.13;;
60935;SDS011;46804;51.786;19.520;2023-02-15T05:28:47;30.83;;;15.23;;
60935;SDS011;46804;51.786;19.520;2023-02-15T05:32:48;28.50;;;15.55;;
60935;SDS011;46804;51.786;19.520;2023-02-15T05:36:48;29.35;;;15.90;;
60935;SDS011;46804;51.786;19.520;2023-02-15T05:40:52;27.85;;;16.05;;
60935;SDS011;46804;51.786;19.520;2023-02-15T05:44:53;33.00;;;15.93;;
60935;SDS011;46804;51.786;19.520;2023-02-15T05:48:54;28.92;;;15.32;;
60935;SDS011;46804;51.786;19.520;2023-02-15T05:52:55;26.77;;;14.25;;
60935;SDS011;46804;51.786;19.520;2023-02-15T05:56:56;32.50;;;16.95;;
60935;SDS011;46804;51.786;19.520;2023-02-15T06:00:56;45.67;;;19.02;;
60935;SDS011;46804;51.786;19.520;2023-02-15T06:04:57;39.88;;;17.60;;
60935;SDS011;46804;51.786;19.520;2023-02-15T06:08:58;34.72;;;16.70;;
60935;SDS011;46804;51.786;19.520;2023-02-15T06:12:59;37.72;;;17.52;;
60935;SDS011;46804;51.786;19.520;2023-02-15T06:17:00;34.35;;;17.88;;
60935;SDS011;46804;51.786;19.520;2023-02-15T06:21:00;35.10;;;17.20;;
60935;SDS011;46804;51.786;19.520;2023-02-15T06:25:01;30.88;;;16.67;;
60935;SDS011;46804;51.786;19.520;2023-02-15T06:29:02;33.58;;;15.88;;
60935;SDS011;46804;51.786;19.520;2023-02-15T06:33:03;37.63;;;16.45;;
60935;SDS011;46804;51.786;19.520;2023-02-15T06:37:03;30.45;;;15.57;;
60935;SDS011;46804;51.786;19.520;2023-02-15T06:41:04;36.47;;;16.88;;
60935;SDS011;46804;51.786;19.520;2023-02-15T06:45:05;28.98;;;15.90;;
60935;SDS011;46804;51.786;19.520;2023-02-15T06:49:06;30.10;;;15.70;;
60935;SDS011;46804;51.786;19.520;2023-02-15T06:53:07;34.63;;;16.55;;
60935;SDS011;46804;51.786;19.520;2023-02-15T06:57:08;36.33;;;18.80;;
60935;SDS011;46804;51.786;19.520;2023-02-15T07:01:09;37.45;;;18.20;;
60935;SDS011;46804;51.786;19.520;2023-02-15T07:05:10;36.25;;;19.08;;
60935;SDS011;46804;51.786;19.520;2023-02-15T07:09:11;34.70;;;17.67;;
60935;SDS011;46804;51.786;19.520;2023-02-15T07:13:13;36.38;;;16.95;;
60935;SDS011;46804;51.786;19.520;2023-02-15T07:17:13;33.83;;;16.90;;
60935;SDS011;46804;51.786;19.520;2023-02-15T07:21:14;44.05;;;21.30;;
60935;SDS011;46804;51.786;19.520;2023-02-15T07:25:15;38.28;;;19.73;;
60935;SDS011;46804;51.786;19.520;2023-02-15T07:29:16;50.03;;;26.42;;
60935;SDS011;46804;51.786;19.520;2023-02-15T07:33:17;42.40;;;19.60;;
60935;SDS011;46804;51.786;19.520;2023-02-15T07:37:24;39.80;;;18.95;;
60935;SDS011;46804;51.786;19.520;2023-02-15T07:41:25;39.05;;;18.67;;
60935;SDS011;46804;51.786;19.520;2023-02-15T07:45:26;39.30;;;17.00;;
60935;SDS011;46804;51.786;19.520;2023-02-15T07:49:27;42.50;;;19.10;;
60935;SDS011;46804;51.786;19.520;2023-02-15T07:53:28;42.47;;;19.20;;
60935;SDS011;46804;51.786;19.520;2023-02-15T07:57:29;37.53;;;18.25;;
60935;SDS011;46804;51.786;19.520;2023-02-15T08:01:34;36.50;;;19.35;;
60935;SDS011;46804;51.786;19.520;2023-02-15T08:05:37;39.25;;;19.92;;
60935;SDS011;46804;51.786;19.520;2023-02-15T08:09:38;35.47;;;16.80;;
60935;SDS011;46804;51.786;19.520;2023-02-15T08:13:39;45.28;;;23.70;;
60935;SDS011;46804;51.786;19.520;2023-02-15T08:17:53;91.85;;;43.50;;
60935;SDS011;46804;51.786;19.520;2023-02-15T08:22:01;43.42;;;19.33;;
60935;SDS011;46804;51.786;19.520;2023-02-15T08:26:04;40.20;;;18.60;;
60935;SDS011;46804;51.786;19.520;2023-02-15T08:30:05;41.63;;;20.17;;
60935;SDS011;46804;51.786;19.520;2023-02-15T08:34:07;57.15;;;25.80;;
60935;SDS011;46804;51.786;19.520;2023-02-15T08:38:09;46.87;;;25.13;;
60935;SDS011;46804;51.786;19.520;2023-02-15T08:42:10;140.00;;;42.50;;
60935;SDS011;46804;51.786;19.520;2023-02-15T08:46:11;42.58;;;20.42;;
60935;SDS011;46804;51.786;19.520;2023-02-15T08:50:11;72.15;;;24.90;;
60935;SDS011;46804;51.786;19.520;2023-02-15T08:54:14;48.08;;;21.33;;
60935;SDS011;46804;51.786;19.520;2023-02-15T08:58:17;44.13;;;21.40;;
60935;SDS011;46804;51.786;19.520;2023-02-15T09:02:17;357.90;;;130.77;;
60935;SDS011;46804;51.786;19.520;2023-02-15T09:06:18;46.33;;;22.65;;
60935;SDS011;46804;51.786;19.520;2023-02-15T09:10:19;54.97;;;24.65;;
60935;SDS011;46804;51.786;19.520;2023-02-15T09:14:20;83.10;;;30.80;;
60935;SDS011;46804;51.786;19.520;2023-02-15T09:18:22;70.22;;;27.05;;
60935;SDS011;46804;51.786;19.520;2023-02-15T09:22:23;65.07;;;23.25;;
60935;SDS011;46804;51.786;19.520;2023-02-15T09:26:24;74.32;;;29.42;;
60935;SDS011;46804;51.786;19.520;2023-02-15T09:30:26;77.43;;;29.42;;
60935;SDS011;46804;51.786;19.520;2023-02-15T09:34:26;84.60;;;31.65;;
60935;SDS011;46804;51.786;19.520;2023-02-15T09:38:27;72.78;;;30.20;;
60935;SDS011;46804;51.786;19.520;2023-02-15T09:46:59;59.60;;;26.98;;
60935;SDS011;46804;51.786;19.520;2023-02-15T09:51:23;62.13;;;26.98;;
60935;SDS011;46804;51.786;19.520;2023-02-15T10:22:23;63.10;;;26.60;;
60935;SDS011;46804;51.786;19.520;2023-02-15T10:26:37;50.45;;;26.30;;
60935;SDS011;46804;51.786;19.520;2023-02-15T10:30:48;47.90;;;22.30;;
60935;SDS011;46804;51.786;19.520;2023-02-15T10:35:04;72.15;;;28.20;;
60935;SDS011;46804;51.786;19.520;2023-02-15T10:44:04;50.28;;;21.20;;
60935;SDS011;46804;51.786;19.520;2023-02-15T10:57:05;54.30;;;23.10;;
60935;SDS011;46804;51.786;19.520;2023-02-15T11:01:22;58.83;;;24.05;;
60935;SDS011;46804;51.786;19.520;2023-02-15T11:10:02;47.53;;;21.52;;
60935;SDS011;46804;51.786;19.520;2023-02-15T11:14:14;45.08;;;19.50;;
60935;SDS011;46804;51.786;19.520;2023-02-15T11:22:32;55.77;;;23.93;;
60935;SDS011;46804;51.786;19.520;2023-02-15T11:26:34;50.57;;;20.87;;
60935;SDS011;46804;51.786;19.520;2023-02-15T11:30:43;48.38;;;20.85;;
60935;SDS011;46804;51.786;19.520;2023-02-15T11:34:56;67.28;;;26.15;;
60935;SDS011;46804;51.786;19.520;2023-02-15T11:39:18;65.80;;;25.45;;
60935;SDS011;46804;51.786;19.520;2023-02-15T11:43:22;48.97;;;21.98;;
60935;SDS011;46804;51.786;19.520;2023-02-15T11:47:30;55.17;;;21.98;;
60935;SDS011;46804;51.786;19.520;2023-02-15T11:51:30;42.13;;;18.85;;
60935;SDS011;46804;51.786;19.520;2023-02-15T11:55:31;47.92;;;18.65;;
60935;SDS011;46804;51.786;19.520;2023-02-15T11:59:35;63.70;;;24.75;;
60935;SDS011;46804;51.786;19.520;2023-02-15T12:03:47;58.33;;;23.07;;
60935;SDS011;46804;51.786;19.520;2023-02-15T12:07:54;53.72;;;22.95;;
60935;SDS011;46804;51.786;19.520;2023-02-15T12:16:27;45.58;;;21.70;;
60935;SDS011;46804;51.786;19.520;2023-02-15T12:20:32;45.05;;;21.58;;
60935;SDS011;46804;51.786;19.520;2023-02-15T12:24:38;56.27;;;22.67;;
60935;SDS011;46804;51.786;19.520;2023-02-15T12:28:48;46.65;;;22.77;;
60935;SDS011;46804;51.786;19.520;2023-02-15T12:32:53;57.53;;;23.92;;
60935;SDS011;46804;51.786;19.520;2023-02-15T12:36:57;51.47;;;22.40;;
60935;SDS011;46804;51.786;19.520;2023-02-15T12:41:02;51.92;;;19.85;;
60935;SDS011;46804;51.786;19.520;2023-02-15T12:45:20;55.53;;;22.17;;
60935;SDS011;46804;51.786;19.520;2023-02-15T12:49:29;51.67;;;22.45;;
60935;SDS011;46804;51.786;19.520;2023-02-15T12:53:38;52.70;;;23.90;;
60935;SDS011;46804;51.786;19.520;2023-02-15T12:57:39;64.07;;;24.75;;
60935;SDS011;46804;51.786;19.520;2023-02-15T13:01:40;41.92;;;19.73;;
60935;SDS011;46804;51.786;19.520;2023-02-15T13:05:43;59.38;;;23.95;;
60935;SDS011;46804;51.786;19.520;2023-02-15T13:09:46;58.50;;;23.00;;
60935;SDS011;46804;51.786;19.520;2023-02-15T13:13:51;51.35;;;22.95;;
60935;SDS011;46804;51.786;19.520;2023-02-15T13:17:55;51.30;;;22.15;;
60935;SDS011;46804;51.786;19.520;2023-02-15T13:21:58;75.70;;;28.43;;
60935;SDS011;46804;51.786;19.520;2023-02-15T13:26:08;65.18;;;26.17;;
60935;SDS011;46804;51.786;19.520;2023-02-15T13:30:22;58.35;;;23.73;;
60935;SDS011;46804;51.786;19.520;2023-02-15T13:34:32;60.25;;;23.60;;
60935;SDS011;46804;51.786;19.520;2023-02-15T13:38:46;52.38;;;23.45;;
60935;SDS011;46804;51.786;19.520;2023-02-15T13:47:04;49.22;;;20.92;;
60935;SDS011;46804;51.786;19.520;2023-02-15T13:51:21;51.85;;;21.02;;
60935;SDS011;46804;51.786;19.520;2023-02-15T14:04:05;51.50;;;24.52;;
60935;SDS011;46804;51.786;19.520;2023-02-15T14:12:54;63.28;;;24.38;;
60935;SDS011;46804;51.786;19.520;2023-02-15T14:17:35;57.05;;;23.20;;
60935;SDS011;46804;51.786;19.520;2023-02-15T14:22:31;48.15;;;22.65;;
60935;SDS011;46804;51.786;19.520;2023-02-15T14:30:33;57.53;;;22.38;;
60935;SDS011;46804;51.786;19.520;2023-02-15T14:39:03;63.15;;;23.85;;
60935;SDS011;46804;51.786;19.520;2023-02-15T14:52:13;49.83;;;23.05;;
60935;SDS011;46804;51.786;19.520;2023-02-15T14:56:18;55.67;;;22.15;;
60935;SDS011;46804;51.786;19.520;2023-02-15T15:00:28;54.83;;;22.83;;
60935;SDS011;46804;51.786;19.520;2023-02-15T15:08:42;54.15;;;21.30;;
60935;SDS011;46804;51.786;19.520;2023-02-15T15:12:44;53.22;;;21.70;;
60935;SDS011;46804;51.786;19.520;2023-02-15T15:16:47;53.78;;;23.52;;
60935;SDS011;46804;51.786;19.520;2023-02-15T15:20:49;60.47;;;24.27;;
60935;SDS011;46804;51.786;19.520;2023-02-15T15:24:52;54.22;;;20.02;;
60935;SDS011;46804;51.786;19.520;2023-02-15T15:29:00;55.67;;;23.75;;
60935;SDS011;46804;51.786;19.520;2023-02-15T15:33:13;52.15;;;20.35;;
60935;SDS011;46804;51.786;19.520;2023-02-15T15:37:39;54.83;;;21.25;;
60935;SDS011;46804;51.786;19.520;2023-02-15T15:42:01;59.50;;;23.05;;
60935;SDS011;46804;51.786;19.520;2023-02-15T15:46:28;59.95;;;24.27;;
60935;SDS011;46804;51.786;19.520;2023-02-15T15:50:42;55.22;;;22.73;;
60935;SDS011;46804;51.786;19.520;2023-02-15T15:54:44;54.38;;;22.70;;
60935;SDS011;46804;51.786;19.520;2023-02-15T15:58:52;51.60;;;22.40;;
60935;SDS011;46804;51.786;19.520;2023-02-15T16:02:56;53.15;;;22.55;;
60935;SDS011;46804;51.786;19.520;2023-02-15T16:06:57;56.00;;;23.25;;
60935;SDS011;46804;51.786;19.520;2023-02-15T16:11:14;65.15;;;26.10;;
60935;SDS011;46804;51.786;19.520;2023-02-15T16:15:21;63.75;;;24.17;;
60935;SDS011;46804;51.786;19.520;2023-02-15T16:19:28;64.95;;;25.10;;
60935;SDS011;46804;51.786;19.520;2023-02-15T16:23:39;49.97;;;21.15;;
60935;SDS011;46804;51.786;19.520;2023-02-15T16:28:05;47.03;;;22.65;;
60935;SDS011;46804;51.786;19.520;2023-02-15T16:32:26;63.00;;;25.08;;
60935;SDS011;46804;51.786;19.520;2023-02-15T16:36:28;53.55;;;23.00;;
60935;SDS011;46804;51.786;19.520;2023-02-15T16:40:35;56.13;;;23.13;;
60935;SDS011;46804;51.786;19.520;2023-02-15T16:44:39;49.60;;;22.90;;
60935;SDS011;46804;51.786;19.520;2023-02-15T16:48:41;67.22;;;26.10;;
60935;SDS011;46804;51.786;19.520;2023-02-15T16:52:45;57.40;;;22.27;;
60935;SDS011;46804;51.786;19.520;2023-02-15T16:56:46;64.90;;;26.60;;
60935;SDS011;46804;51.786;19.520;2023-02-15T17:00:47;52.88;;;23.02;;
60935;SDS011;46804;51.786;19.520;2023-02-15T17:05:21;49.40;;;22.85;;
60935;SDS011;46804;51.786;19.520;2023-02-15T17:09:18;46.00;;;21.65;;
60935;SDS011;46804;51.786;19.520;2023-02-15T17:13:22;57.78;;;22.23;;
60935;SDS011;46804;51.786;19.520;2023-02-15T17:17:23;58.70;;;25.00;;
60935;SDS011;46804;51.786;19.520;2023-02-15T17:21:26;49.13;;;21.95;;
60935;SDS011;46804;51.786;19.520;2023-02-15T17:25:36;52.60;;;21.92;;
60935;SDS011;46804;51.786;19.520;2023-02-15T17:29:40;59.42;;;26.65;;
60935;SDS011;46804;51.786;19.520;2023-02-15T17:33:45;48.70;;;22.48;;
60935;SDS011;46804;51.786;19.520;2023-02-15T17:37:47;75.13;;;24.90;;
60935;SDS011;46804;51.786;19.520;2023-02-15T17:41:49;57.53;;;26.50;;
60935;SDS011;46804;51.786;19.520;2023-02-15T17:45:53;63.88;;;26.33;;
60935;SDS011;46804;51.786;19.520;2023-02-15T17:49:55;52.78;;;21.88;;
60935;SDS011;46804;51.786;19.520;2023-02-15T17:53:56;50.33;;;21.75;;
60935;SDS011;46804;51.786;19.520;2023-02-15T17:58:16;49.65;;;22.08;;
60935;SDS011;46804;51.786;19.520;2023-02-15T18:02:19;63.35;;;23.85;;
60935;SDS011;46804;51.786;19.520;2023-02-15T18:06:39;54.35;;;23.27;;
60935;SDS011;46804;51.786;19.520;2023-02-15T18:11:00;61.53;;;24.45;;
60935;SDS011;46804;51.786;19.520;2023-02-15T18:15:19;61.92;;;23.02;;
60935;SDS011;46804;51.786;19.520;2023-02-15T18:19:21;52.03;;;21.33;;
60935;SDS011;46804;51.786;19.520;2023-02-15T18:23:24;58.67;;;21.60;;
60935;SDS011;46804;51.786;19.520;2023-02-15T18:27:25;53.42;;;23.63;;
60935;SDS011;46804;51.786;19.520;2023-02-15T18:31:26;53.55;;;22.20;;
60935;SDS011;46804;51.786;19.520;2023-02-15T18:35:30;51.95;;;22.58;;
60935;SDS011;46804;51.786;19.520;2023-02-15T18:43:40;54.67;;;23.85;;
60935;SDS011;46804;51.786;19.520;2023-02-15T18:47:41;57.40;;;23.27;;
60935;SDS011;46804;51.786;19.520;2023-02-15T18:51:42;60.15;;;22.85;;
60935;SDS011;46804;51.786;19.520;2023-02-15T18:55:43;59.90;;;23.10;;
60935;SDS011;46804;51.786;19.520;2023-02-15T18:59:44;46.00;;;20.40;;
60935;SDS011;46804;51.786;19.520;2023-02-15T19:03:46;60.05;;;23.98;;
60935;SDS011;46804;51.786;19.520;2023-02-15T19:07:48;50.53;;;21.73;;
60935;SDS011;46804;51.786;19.520;2023-02-15T19:11:50;64.35;;;26.15;;
60935;SDS011;46804;51.786;19.520;2023-02-15T19:15:54;71.03;;;26.83;;
60935;SDS011;46804;51.786;19.520;2023-02-15T19:19:55;66.07;;;27.02;;
60935;SDS011;46804;51.786;19.520;2023-02-15T19:24:06;61.35;;;24.55;;
60935;SDS011;46804;51.786;19.520;2023-02-15T19:28:14;75.38;;;29.10;;
60935;SDS011;46804;51.786;19.520;2023-02-15T19:32:17;88.35;;;30.15;;
60935;SDS011;46804;51.786;19.520;2023-02-15T19:36:18;68.53;;;26.83;;
60935;SDS011;46804;51.786;19.520;2023-02-15T19:44:48;71.07;;;26.40;;
60935;SDS011;46804;51.786;19.520;2023-02-15T19:48:49;61.03;;;24.80;;
60935;SDS011;46804;51.786;19.520;2023-02-15T19:52:51;75.38;;;29.30;;
60935;SDS011;46804;51.786;19.520;2023-02-15T19:56:52;68.43;;;26.33;;
60935;SDS011;46804;51.786;19.520;2023-02-15T20:00:52;91.72;;;31.98;;
60935;SDS011;46804;51.786;19.520;2023-02-15T20:04:53;76.47;;;29.80;;
60935;SDS011;46804;51.786;19.520;2023-02-15T20:08:54;76.85;;;28.90;;
60935;SDS011;46804;51.786;19.520;2023-02-15T20:12:55;69.60;;;27.70;;
60935;SDS011;46804;51.786;19.520;2023-02-15T20:16:56;61.67;;;28.00;;
60935;SDS011;46804;51.786;19.520;2023-02-15T20:20:57;66.80;;;27.85;;
60935;SDS011;46804;51.786;19.520;2023-02-15T20:24:58;72.80;;;29.30;;
60935;SDS011;46804;51.786;19.520;2023-02-15T20:28:59;101.13;;;38.33;;
60935;SDS011;46804;51.786;19.520;2023-02-15T20:32:59;305.35;;;88.60;;
60935;SDS011;46804;51.786;19.520;2023-02-15T20:37:00;167.40;;;50.92;;
60935;SDS011;46804;51.786;19.520;2023-02-15T20:41:01;145.90;;;36.83;;
60935;SDS011;46804;51.786;19.520;2023-02-15T20:45:21;94.97;;;31.73;;
60935;SDS011;46804;51.786;19.520;2023-02-15T20:53:25;180.38;;;44.42;;
60935;SDS011;46804;51.786;19.520;2023-02-15T20:57:27;164.70;;;42.67;;
60935;SDS011;46804;51.786;19.520;2023-02-15T21:01:27;208.00;;;47.00;;
60935;SDS011;46804;51.786;19.520;2023-02-15T21:05:29;276.30;;;63.83;;
60935;SDS011;46804;51.786;19.520;2023-02-15T21:09:32;176.98;;;46.97;;
60935;SDS011;46804;51.786;19.520;2023-02-15T21:13:33;144.63;;;42.25;;
60935;SDS011;46804;51.786;19.520;2023-02-15T21:17:34;128.55;;;41.38;;
60935;SDS011;46804;51.786;19.520;2023-02-15T21:21:35;139.27;;;36.20;;
60935;SDS011;46804;51.786;19.520;2023-02-15T21:25:36;128.90;;;37.22;;
60935;SDS011;46804;51.786;19.520;2023-02-15T21:29:37;117.10;;;36.03;;
60935;SDS011;46804;51.786;19.520;2023-02-15T21:33:37;107.00;;;34.03;;
60935;SDS011;46804;51.786;19.520;2023-02-15T21:37:38;122.18;;;39.15;;
60935;SDS011;46804;51.786;19.520;2023-02-15T21:41:41;96.30;;;34.28;;
60935;SDS011;46804;51.786;19.520;2023-02-15T21:46:14;198.32;;;58.50;;
60935;SDS011;46804;51.786;19.520;2023-02-15T21:50:35;104.47;;;34.53;;
60935;SDS011;46804;51.786;19.520;2023-02-15T21:54:54;103.82;;;35.38;;
60935;SDS011;46804;51.786;19.520;2023-02-15T21:58:55;100.20;;;31.98;;
60935;SDS011;46804;51.786;19.520;2023-02-15T22:02:56;91.60;;;31.48;;
60935;SDS011;46804;51.786;19.520;2023-02-15T22:06:58;85.57;;;33.60;;
60935;SDS011;46804;51.786;19.520;2023-02-15T22:10:59;86.90;;;30.05;;
60935;SDS011;46804;51.786;19.520;2023-02-15T22:14:59;124.75;;;38.40;;
60935;SDS011;46804;51.786;19.520;2023-02-15T22:19:01;114.65;;;36.45;;
60935;SDS011;46804;51.786;19.520;2023-02-15T22:23:02;98.25;;;32.90;;
60935;SDS011;46804;51.786;19.520;2023-02-15T22:27:02;103.35;;;35.20;;
60935;SDS011;46804;51.786;19.520;2023-02-15T22:31:14;101.80;;;33.05;;
60935;SDS011;46804;51.786;19.520;2023-02-15T22:35:19;112.35;;;41.42;;
60935;SDS011;46804;51.786;19.520;2023-02-15T22:39:22;133.73;;;40.83;;
60935;SDS011;46804;51.786;19.520;2023-02-15T22:43:35;117.88;;;37.55;;
60935;SDS011;46804;51.786;19.520;2023-02-15T22:47:38;101.40;;;31.88;;
60935;SDS011;46804;51.786;19.520;2023-02-15T22:51:39;82.15;;;32.00;;
60935;SDS011;46804;51.786;19.520;2023-02-15T22:55:40;88.97;;;30.52;;
60935;SDS011;46804;51.786;19.520;2023-02-15T22:59:40;98.95;;;37.20;;
60935;SDS011;46804;51.786;19.520;2023-02-15T23:03:41;80.25;;;30.27;;
60935;SDS011;46804;51.786;19.520;2023-02-15T23:07:42;75.13;;;27.75;;
60935;SDS011;46804;51.786;19.520;2023-02-15T23:11:43;86.63;;;32.60;;
60935;SDS011;46804;51.786;19.520;2023-02-15T23:15:46;87.80;;;32.33;;
60935;SDS011;46804;51.786;19.520;2023-02-15T23:19:48;86.38;;;30.85;;
60935;SDS011;46804;51.786;19.520;2023-02-15T23:23:50;82.13;;;31.00;;
60935;SDS011;46804;51.786;19.520;2023-02-15T23:27:52;87.15;;;31.70;;
60935;SDS011;46804;51.786;19.520;2023-02-15T23:35:57;82.85;;;30.25;;
60935;SDS011;46804;51.786;19.520;2023-02-15T23:39:58;78.38;;;33.00;;
60935;SDS011;46804;51.786;19.520;2023-02-15T23:44:18;75.50;;;29.05;;
60935;SDS011;46804;51.786;19.520;2023-02-15T23:48:22;79.93;;;31.13;;
60935;SDS011;46804;51.786;19.520;2023-02-15T23:52:29;78.00;;;28.88;;
60935;SDS011;46804;51.786;19.520;2023-02-15T23:56:30;84.45;;;32.22;;
